Portada
METAR-TAF:

METAR-TAF

Aeropuertos :

Aeropuerto Internacional Amata Kabua

Majuro, Islas Marshall

latitud: 07-04N, longitud: 171-17E, altitud: 2 m

Observación

El informe se hizo hace 21 minutos, a las 21:52 UTC
Viento 15 kt del este
Temperatura 31°C
Humedad 71%
Presión 1009 hPa
Visibilidad: 24.1 km
Escasas nubes a una altura de 1500 ft
Nubes dispersas a una altura de 5000 ft
Cielo nuboso a una altura de 30000 ft

METAR: PKMJ 172152Z COR 08015KT 15SM FEW015 SCT050 BKN300 31/25 A2980 RMK LAST

Hora: 10:13 (22:13 UTC)

Pronóstico

El informe se hizo hace 4 horas y 44 minutos, a las 17:29 UTC
Pronóstico válido del 17 a las 18 UTC al 18 a las 18 UTC
Viento 11 kt del este
Visibilidad: 10 km
Nubes dispersas a una altura de 1400 ft
Nubes dispersas a una altura de 4500 ft
Cielo nuboso a una altura de 11000 ft
chaparrones en las proximidades

TAF: PKMJ 171729Z 1718/1818 09011KT P6SM VCSH SCT014 SCT045 BKN110

Observaciones y pronósticos meteorológicos de más de 4000 aeropuertos (mensajes METAR y TAF).

Los puntos amarillos y rojos representan las estaciones disponibles.

Ponga el ratón en el punto deseado para ver el nombre de la estación.

Haga clic para ver las observaciones y los pronósticos meteorológicos.

Para cambiar el mapa : haga clic en los botones verdes con una cruz de color negro para hacer un zoom, en el botón verde con un guión para alejar o en las flechas verdes para mapas adyacentes.


METAR-TAF: